<?xml version="1.0" encoding="UTF-8" standalone="no" ?>
<gpx xmlns="http://www.topografix.com/GPX/1/1" xmlns:xsi="http://www.w3.org/2001/XMLSchema-instance" xsi:schemaLocation="http://www.topografix.com/GPX/1/1 http://www.topografix.com/GPX/1/1/gpx.xsd" version="1.1" creator="VisuGPX - https://www.visugpx.com">
  <metadata>
    <name>Boucle botanique de Saint-Martin-de-Fressengeas</name>
  </metadata>
  <wpt lat="45.44263" lon="0.84482">
    <ele>262.8</ele>
    <name><![CDATA[Place de la mairie ]]></name>
  </wpt>
  <wpt lat="45.4432" lon="0.84431">
    <ele>265.5</ele>
    <name><![CDATA[Bifurcation commune A/R]]></name>
  </wpt>
  <wpt lat="45.44395" lon="0.8362">
    <ele>194.3</ele>
    <name><![CDATA[Gué. Ruisseau de la Benché]]></name>
  </wpt>
  <wpt lat="45.44846" lon="0.83161">
    <ele>252.4</ele>
    <name><![CDATA[Sentier de découverte de l'Âge]]></name>
  </wpt>
  <wpt lat="45.45475" lon="0.82873">
    <ele>249</ele>
    <name><![CDATA[Hameau de l'Âge]]></name>
  </wpt>
  <wpt lat="45.4594" lon="0.83784">
    <ele>286.2</ele>
    <name><![CDATA[Route. La Tuilière]]></name>
  </wpt>
  <wpt lat="45.45369" lon="0.84216">
    <ele>275.4</ele>
    <name><![CDATA[Carrefour de 4 routes]]></name>
  </wpt>
  <wpt lat="45.44905" lon="0.84845">
    <ele>279.5</ele>
    <name><![CDATA[Usine désaffectée]]></name>
  </wpt>
  <wpt lat="45.44273" lon="0.84501">
    <ele>262.7</ele>
    <name><![CDATA[Place de la Mairie]]></name>
  </wpt>
  <trk>
    <name><![CDATA[Boucle botanique de Saint-Martin-de-Fressengeas]]></name>
    <extensions>
      <line xmlns="http://www.topografix.com/GPX/gpx_style/0/2">
        <color>0000FF</color>
        <width>4</width>
      </line>
    </extensions>
    <trkseg>
      <trkpt lat="45.44263" lon="0.84482">
        <ele>274</ele>
        <time>2021-09-22T10:09:17+02:00</time>
      </trkpt>
      <trkpt lat="45.44276" lon="0.84454">
        <ele>278</ele>
        <time>2021-09-22T10:10:01+02:00</time>
      </trkpt>
      <trkpt lat="45.44298" lon="0.84444">
        <ele>279</ele>
        <time>2021-09-22T10:10:25+02:00</time>
      </trkpt>
      <trkpt lat="45.4432" lon="0.84431">
        <ele>276</ele>
        <time>2021-09-22T10:11:18+02:00</time>
      </trkpt>
      <trkpt lat="45.44337" lon="0.8441">
        <ele>267</ele>
        <time>2021-09-22T10:11:38+02:00</time>
      </trkpt>
      <trkpt lat="45.44347" lon="0.8438">
        <ele>264</ele>
        <time>2021-09-22T10:12:02+02:00</time>
      </trkpt>
      <trkpt lat="45.44342" lon="0.84349">
        <ele>259</ele>
        <time>2021-09-22T10:12:25+02:00</time>
      </trkpt>
      <trkpt lat="45.4433" lon="0.84321">
        <ele>260</ele>
        <time>2021-09-22T10:12:50+02:00</time>
      </trkpt>
      <trkpt lat="45.44319" lon="0.84292">
        <ele>259</ele>
        <time>2021-09-22T10:13:20+02:00</time>
      </trkpt>
      <trkpt lat="45.44306" lon="0.84264">
        <ele>260</ele>
        <time>2021-09-22T10:13:43+02:00</time>
      </trkpt>
      <trkpt lat="45.44295" lon="0.84237">
        <ele>259</ele>
        <time>2021-09-22T10:14:04+02:00</time>
      </trkpt>
      <trkpt lat="45.44283" lon="0.84209">
        <ele>255</ele>
        <time>2021-09-22T10:14:23+02:00</time>
      </trkpt>
      <trkpt lat="45.44272" lon="0.8418">
        <ele>253</ele>
        <time>2021-09-22T10:14:45+02:00</time>
      </trkpt>
      <trkpt lat="45.4426" lon="0.84152">
        <ele>253</ele>
        <time>2021-09-22T10:15:09+02:00</time>
      </trkpt>
      <trkpt lat="45.44255" lon="0.8412">
        <ele>250</ele>
        <time>2021-09-22T10:15:30+02:00</time>
      </trkpt>
      <trkpt lat="45.44254" lon="0.84087">
        <ele>246</ele>
        <time>2021-09-22T10:15:51+02:00</time>
      </trkpt>
      <trkpt lat="45.44259" lon="0.84055">
        <ele>241</ele>
        <time>2021-09-22T10:16:13+02:00</time>
      </trkpt>
      <trkpt lat="45.44273" lon="0.84029">
        <ele>240</ele>
        <time>2021-09-22T10:17:05+02:00</time>
      </trkpt>
      <trkpt lat="45.44286" lon="0.84003">
        <ele>239</ele>
        <time>2021-09-22T10:17:38+02:00</time>
      </trkpt>
      <trkpt lat="45.44299" lon="0.83977">
        <ele>236</ele>
        <time>2021-09-22T10:18:02+02:00</time>
      </trkpt>
      <trkpt lat="45.44315" lon="0.83951">
        <ele>232</ele>
        <time>2021-09-22T10:18:24+02:00</time>
      </trkpt>
      <trkpt lat="45.44329" lon="0.83926">
        <ele>228</ele>
        <time>2021-09-22T10:18:51+02:00</time>
      </trkpt>
      <trkpt lat="45.44344" lon="0.839">
        <ele>220</ele>
        <time>2021-09-22T10:19:19+02:00</time>
      </trkpt>
      <trkpt lat="45.44354" lon="0.83871">
        <ele>228</ele>
        <time>2021-09-22T10:19:53+02:00</time>
      </trkpt>
      <trkpt lat="45.44366" lon="0.83842">
        <ele>224</ele>
        <time>2021-09-22T10:20:18+02:00</time>
      </trkpt>
      <trkpt lat="45.44372" lon="0.83811">
        <ele>214</ele>
        <time>2021-09-22T10:20:42+02:00</time>
      </trkpt>
      <trkpt lat="45.44376" lon="0.83779">
        <ele>208</ele>
        <time>2021-09-22T10:21:10+02:00</time>
      </trkpt>
      <trkpt lat="45.44381" lon="0.83747">
        <ele>206</ele>
        <time>2021-09-22T10:21:37+02:00</time>
      </trkpt>
      <trkpt lat="45.44385" lon="0.83715">
        <ele>202</ele>
        <time>2021-09-22T10:22:05+02:00</time>
      </trkpt>
      <trkpt lat="45.44389" lon="0.83683">
        <ele>196</ele>
        <time>2021-09-22T10:22:31+02:00</time>
      </trkpt>
      <trkpt lat="45.44387" lon="0.8365">
        <ele>193</ele>
        <time>2021-09-22T10:22:57+02:00</time>
      </trkpt>
      <trkpt lat="45.44395" lon="0.8362">
        <ele>195</ele>
        <time>2021-09-22T10:24:28+02:00</time>
      </trkpt>
      <trkpt lat="45.44399" lon="0.83588">
        <ele>194</ele>
        <time>2021-09-22T10:24:59+02:00</time>
      </trkpt>
      <trkpt lat="45.44411" lon="0.8356">
        <ele>198</ele>
        <time>2021-09-22T10:25:25+02:00</time>
      </trkpt>
      <trkpt lat="45.44414" lon="0.83528">
        <ele>211</ele>
        <time>2021-09-22T10:26:01+02:00</time>
      </trkpt>
      <trkpt lat="45.44425" lon="0.83499">
        <ele>217</ele>
        <time>2021-09-22T10:26:28+02:00</time>
      </trkpt>
      <trkpt lat="45.44431" lon="0.83468">
        <ele>217</ele>
        <time>2021-09-22T10:26:55+02:00</time>
      </trkpt>
      <trkpt lat="45.44439" lon="0.83437">
        <ele>222</ele>
        <time>2021-09-22T10:27:24+02:00</time>
      </trkpt>
      <trkpt lat="45.44447" lon="0.83407">
        <ele>230</ele>
        <time>2021-09-22T10:27:50+02:00</time>
      </trkpt>
      <trkpt lat="45.4446" lon="0.8338">
        <ele>234</ele>
        <time>2021-09-22T10:28:17+02:00</time>
      </trkpt>
      <trkpt lat="45.4447" lon="0.8335">
        <ele>239</ele>
        <time>2021-09-22T10:28:48+02:00</time>
      </trkpt>
      <trkpt lat="45.44476" lon="0.83318">
        <ele>231</ele>
        <time>2021-09-22T10:29:14+02:00</time>
      </trkpt>
      <trkpt lat="45.44484" lon="0.83288">
        <ele>232</ele>
        <time>2021-09-22T10:29:35+02:00</time>
      </trkpt>
      <trkpt lat="45.44496" lon="0.8326">
        <ele>232</ele>
        <time>2021-09-22T10:30:03+02:00</time>
      </trkpt>
      <trkpt lat="45.44506" lon="0.8323">
        <ele>230</ele>
        <time>2021-09-22T10:30:26+02:00</time>
      </trkpt>
      <trkpt lat="45.44516" lon="0.832">
        <ele>230</ele>
        <time>2021-09-22T10:30:48+02:00</time>
      </trkpt>
      <trkpt lat="45.44527" lon="0.83173">
        <ele>230</ele>
        <time>2021-09-22T10:31:14+02:00</time>
      </trkpt>
      <trkpt lat="45.4454" lon="0.83145">
        <ele>231</ele>
        <time>2021-09-22T10:31:39+02:00</time>
      </trkpt>
      <trkpt lat="45.4455" lon="0.83117">
        <ele>230</ele>
        <time>2021-09-22T10:32:03+02:00</time>
      </trkpt>
      <trkpt lat="45.44565" lon="0.83091">
        <ele>230</ele>
        <time>2021-09-22T10:32:25+02:00</time>
      </trkpt>
      <trkpt lat="45.44578" lon="0.83063">
        <ele>226</ele>
        <time>2021-09-22T10:32:47+02:00</time>
      </trkpt>
      <trkpt lat="45.4459" lon="0.83035">
        <ele>227</ele>
        <time>2021-09-22T10:33:11+02:00</time>
      </trkpt>
      <trkpt lat="45.44612" lon="0.83045">
        <ele>233</ele>
        <time>2021-09-22T10:33:42+02:00</time>
      </trkpt>
      <trkpt lat="45.44631" lon="0.83063">
        <ele>236</ele>
        <time>2021-09-22T10:34:04+02:00</time>
      </trkpt>
      <trkpt lat="45.44651" lon="0.83079">
        <ele>235</ele>
        <time>2021-09-22T10:34:25+02:00</time>
      </trkpt>
      <trkpt lat="45.44673" lon="0.83089">
        <ele>237</ele>
        <time>2021-09-22T10:34:52+02:00</time>
      </trkpt>
      <trkpt lat="45.44695" lon="0.83098">
        <ele>241</ele>
        <time>2021-09-22T10:35:16+02:00</time>
      </trkpt>
      <trkpt lat="45.44716" lon="0.8311">
        <ele>240</ele>
        <time>2021-09-22T10:35:38+02:00</time>
      </trkpt>
      <trkpt lat="45.44738" lon="0.8312">
        <ele>242</ele>
        <time>2021-09-22T10:36:03+02:00</time>
      </trkpt>
      <trkpt lat="45.44759" lon="0.83133">
        <ele>245</ele>
        <time>2021-09-22T10:36:27+02:00</time>
      </trkpt>
      <trkpt lat="45.4478" lon="0.83145">
        <ele>248</ele>
        <time>2021-09-22T10:36:51+02:00</time>
      </trkpt>
      <trkpt lat="45.44802" lon="0.83157">
        <ele>249</ele>
        <time>2021-09-22T10:37:16+02:00</time>
      </trkpt>
      <trkpt lat="45.44824" lon="0.83168">
        <ele>252</ele>
        <time>2021-09-22T10:37:43+02:00</time>
      </trkpt>
      <trkpt lat="45.44846" lon="0.83161">
        <ele>252</ele>
        <time>2021-09-22T10:38:12+02:00</time>
      </trkpt>
      <trkpt lat="45.44863" lon="0.83137">
        <ele>252</ele>
        <time>2021-09-22T10:38:37+02:00</time>
      </trkpt>
      <trkpt lat="45.4488" lon="0.83116">
        <ele>252</ele>
        <time>2021-09-22T10:39:43+02:00</time>
      </trkpt>
      <trkpt lat="45.44898" lon="0.83096">
        <ele>248</ele>
        <time>2021-09-22T10:40:05+02:00</time>
      </trkpt>
      <trkpt lat="45.44912" lon="0.83071">
        <ele>254</ele>
        <time>2021-09-22T10:40:33+02:00</time>
      </trkpt>
      <trkpt lat="45.44929" lon="0.8305">
        <ele>256</ele>
        <time>2021-09-22T10:40:56+02:00</time>
      </trkpt>
      <trkpt lat="45.44945" lon="0.83025">
        <ele>259</ele>
        <time>2021-09-22T10:41:24+02:00</time>
      </trkpt>
      <trkpt lat="45.44961" lon="0.83002">
        <ele>257</ele>
        <time>2021-09-22T10:41:50+02:00</time>
      </trkpt>
      <trkpt lat="45.4498" lon="0.82985">
        <ele>260</ele>
        <time>2021-09-22T10:42:17+02:00</time>
      </trkpt>
      <trkpt lat="45.45" lon="0.82969">
        <ele>267</ele>
        <time>2021-09-22T10:42:44+02:00</time>
      </trkpt>
      <trkpt lat="45.45022" lon="0.82959">
        <ele>270</ele>
        <time>2021-09-22T10:43:31+02:00</time>
      </trkpt>
      <trkpt lat="45.45042" lon="0.82944">
        <ele>263</ele>
        <time>2021-09-22T10:44:10+02:00</time>
      </trkpt>
      <trkpt lat="45.45063" lon="0.82932">
        <ele>267</ele>
        <time>2021-09-22T10:45:17+02:00</time>
      </trkpt>
      <trkpt lat="45.45084" lon="0.82902">
        <ele>266</ele>
        <time>2021-09-22T10:46:57+02:00</time>
      </trkpt>
      <trkpt lat="45.45108" lon="0.8289">
        <ele>259</ele>
        <time>2021-09-22T10:48:48+02:00</time>
      </trkpt>
      <trkpt lat="45.45131" lon="0.82895">
        <ele>251</ele>
        <time>2021-09-22T10:51:35+02:00</time>
      </trkpt>
      <trkpt lat="45.45154" lon="0.82888">
        <ele>249</ele>
        <time>2021-09-22T10:51:55+02:00</time>
      </trkpt>
      <trkpt lat="45.45177" lon="0.82884">
        <ele>252</ele>
        <time>2021-09-22T10:52:44+02:00</time>
      </trkpt>
      <trkpt lat="45.45199" lon="0.82878">
        <ele>253</ele>
        <time>2021-09-22T10:53:16+02:00</time>
      </trkpt>
      <trkpt lat="45.45222" lon="0.82879">
        <ele>252</ele>
        <time>2021-09-22T10:53:47+02:00</time>
      </trkpt>
      <trkpt lat="45.45245" lon="0.82884">
        <ele>251</ele>
        <time>2021-09-22T10:54:12+02:00</time>
      </trkpt>
      <trkpt lat="45.45266" lon="0.82895">
        <ele>246</ele>
        <time>2021-09-22T10:54:46+02:00</time>
      </trkpt>
      <trkpt lat="45.45282" lon="0.82919">
        <ele>245</ele>
        <time>2021-09-22T10:55:13+02:00</time>
      </trkpt>
      <trkpt lat="45.45304" lon="0.82928">
        <ele>239</ele>
        <time>2021-09-22T10:55:45+02:00</time>
      </trkpt>
      <trkpt lat="45.45321" lon="0.82952">
        <ele>240</ele>
        <time>2021-09-22T10:56:20+02:00</time>
      </trkpt>
      <trkpt lat="45.45341" lon="0.82968">
        <ele>241</ele>
        <time>2021-09-22T10:56:48+02:00</time>
      </trkpt>
      <trkpt lat="45.45363" lon="0.82982">
        <ele>239</ele>
        <time>2021-09-22T10:57:06+02:00</time>
      </trkpt>
      <trkpt lat="45.45386" lon="0.8298">
        <ele>244</ele>
        <time>2021-09-22T10:57:41+02:00</time>
      </trkpt>
      <trkpt lat="45.45415" lon="0.82971">
        <ele>248</ele>
        <time>2021-09-22T10:58:38+02:00</time>
      </trkpt>
      <trkpt lat="45.4543" lon="0.82946">
        <ele>246</ele>
        <time>2021-09-22T10:59:04+02:00</time>
      </trkpt>
      <trkpt lat="45.45445" lon="0.82923">
        <ele>252</ele>
        <time>2021-09-22T10:59:47+02:00</time>
      </trkpt>
      <trkpt lat="45.45462" lon="0.829">
        <ele>251</ele>
        <time>2021-09-22T11:00:15+02:00</time>
      </trkpt>
      <trkpt lat="45.45475" lon="0.82873">
        <ele>251</ele>
        <time>2021-09-22T11:01:01+02:00</time>
      </trkpt>
      <trkpt lat="45.45495" lon="0.82858">
        <ele>247</ele>
        <time>2021-09-22T11:04:33+02:00</time>
      </trkpt>
      <trkpt lat="45.45513" lon="0.82839">
        <ele>252</ele>
        <time>2021-09-22T11:05:18+02:00</time>
      </trkpt>
      <trkpt lat="45.45536" lon="0.82848">
        <ele>250</ele>
        <time>2021-09-22T11:05:41+02:00</time>
      </trkpt>
      <trkpt lat="45.45559" lon="0.82853">
        <ele>246</ele>
        <time>2021-09-22T11:05:58+02:00</time>
      </trkpt>
      <trkpt lat="45.45582" lon="0.82856">
        <ele>252</ele>
        <time>2021-09-22T11:06:25+02:00</time>
      </trkpt>
      <trkpt lat="45.45599" lon="0.82877">
        <ele>252</ele>
        <time>2021-09-22T11:06:45+02:00</time>
      </trkpt>
      <trkpt lat="45.4562" lon="0.82888">
        <ele>254</ele>
        <time>2021-09-22T11:07:13+02:00</time>
      </trkpt>
      <trkpt lat="45.45631" lon="0.82916">
        <ele>256</ele>
        <time>2021-09-22T11:08:41+02:00</time>
      </trkpt>
      <trkpt lat="45.45634" lon="0.82949">
        <ele>260</ele>
        <time>2021-09-22T11:09:11+02:00</time>
      </trkpt>
      <trkpt lat="45.45649" lon="0.82974">
        <ele>261</ele>
        <time>2021-09-22T11:09:36+02:00</time>
      </trkpt>
      <trkpt lat="45.45663" lon="0.82999">
        <ele>263</ele>
        <time>2021-09-22T11:10:01+02:00</time>
      </trkpt>
      <trkpt lat="45.45677" lon="0.83025">
        <ele>261</ele>
        <time>2021-09-22T11:10:22+02:00</time>
      </trkpt>
      <trkpt lat="45.4569" lon="0.83052">
        <ele>261</ele>
        <time>2021-09-22T11:10:41+02:00</time>
      </trkpt>
      <trkpt lat="45.45697" lon="0.83082">
        <ele>260</ele>
        <time>2021-09-22T11:11:06+02:00</time>
      </trkpt>
      <trkpt lat="45.45701" lon="0.83116">
        <ele>260</ele>
        <time>2021-09-22T11:11:25+02:00</time>
      </trkpt>
      <trkpt lat="45.45706" lon="0.83147">
        <ele>259</ele>
        <time>2021-09-22T11:11:50+02:00</time>
      </trkpt>
      <trkpt lat="45.45718" lon="0.83176">
        <ele>273</ele>
        <time>2021-09-22T11:12:21+02:00</time>
      </trkpt>
      <trkpt lat="45.45722" lon="0.83208">
        <ele>277</ele>
        <time>2021-09-22T11:12:49+02:00</time>
      </trkpt>
      <trkpt lat="45.45736" lon="0.83235">
        <ele>278</ele>
        <time>2021-09-22T11:13:15+02:00</time>
      </trkpt>
      <trkpt lat="45.45752" lon="0.83258">
        <ele>275</ele>
        <time>2021-09-22T11:13:41+02:00</time>
      </trkpt>
      <trkpt lat="45.45769" lon="0.8328">
        <ele>277</ele>
        <time>2021-09-22T11:14:00+02:00</time>
      </trkpt>
      <trkpt lat="45.4578" lon="0.83308">
        <ele>279</ele>
        <time>2021-09-22T11:14:24+02:00</time>
      </trkpt>
      <trkpt lat="45.45789" lon="0.83339">
        <ele>282</ele>
        <time>2021-09-22T11:14:47+02:00</time>
      </trkpt>
      <trkpt lat="45.45795" lon="0.8337">
        <ele>287</ele>
        <time>2021-09-22T11:15:13+02:00</time>
      </trkpt>
      <trkpt lat="45.45802" lon="0.83401">
        <ele>288</ele>
        <time>2021-09-22T11:15:33+02:00</time>
      </trkpt>
      <trkpt lat="45.45805" lon="0.83434">
        <ele>292</ele>
        <time>2021-09-22T11:16:01+02:00</time>
      </trkpt>
      <trkpt lat="45.45815" lon="0.83462">
        <ele>290</ele>
        <time>2021-09-22T11:16:22+02:00</time>
      </trkpt>
      <trkpt lat="45.45831" lon="0.83487">
        <ele>290</ele>
        <time>2021-09-22T11:16:51+02:00</time>
      </trkpt>
      <trkpt lat="45.45845" lon="0.83513">
        <ele>285</ele>
        <time>2021-09-22T11:17:11+02:00</time>
      </trkpt>
      <trkpt lat="45.45861" lon="0.83536">
        <ele>282</ele>
        <time>2021-09-22T11:17:34+02:00</time>
      </trkpt>
      <trkpt lat="45.45879" lon="0.83557">
        <ele>280</ele>
        <time>2021-09-22T11:17:57+02:00</time>
      </trkpt>
      <trkpt lat="45.45878" lon="0.8359">
        <ele>281</ele>
        <time>2021-09-22T11:18:19+02:00</time>
      </trkpt>
      <trkpt lat="45.45863" lon="0.83615">
        <ele>279</ele>
        <time>2021-09-22T11:18:44+02:00</time>
      </trkpt>
      <trkpt lat="45.45876" lon="0.83642">
        <ele>276</ele>
        <time>2021-09-22T11:19:23+02:00</time>
      </trkpt>
      <trkpt lat="45.45894" lon="0.83662">
        <ele>278</ele>
        <time>2021-09-22T11:19:49+02:00</time>
      </trkpt>
      <trkpt lat="45.45916" lon="0.83652">
        <ele>287</ele>
        <time>2021-09-22T11:20:36+02:00</time>
      </trkpt>
      <trkpt lat="45.45937" lon="0.83669">
        <ele>285</ele>
        <time>2021-09-22T11:21:01+02:00</time>
      </trkpt>
      <trkpt lat="45.45952" lon="0.83693">
        <ele>284</ele>
        <time>2021-09-22T11:21:24+02:00</time>
      </trkpt>
      <trkpt lat="45.45958" lon="0.83725">
        <ele>284</ele>
        <time>2021-09-22T11:21:48+02:00</time>
      </trkpt>
      <trkpt lat="45.45952" lon="0.83757">
        <ele>287</ele>
        <time>2021-09-22T11:22:16+02:00</time>
      </trkpt>
      <trkpt lat="45.4594" lon="0.83784">
        <ele>291</ele>
        <time>2021-09-22T11:22:42+02:00</time>
      </trkpt>
      <trkpt lat="45.45917" lon="0.83802">
        <ele>298</ele>
        <time>2021-09-22T11:23:12+02:00</time>
      </trkpt>
      <trkpt lat="45.45891" lon="0.83805">
        <ele>297</ele>
        <time>2021-09-22T11:25:43+02:00</time>
      </trkpt>
      <trkpt lat="45.45868" lon="0.83805">
        <ele>307</ele>
        <time>2021-09-22T11:28:31+02:00</time>
      </trkpt>
      <trkpt lat="45.45845" lon="0.83801">
        <ele>309</ele>
        <time>2021-09-22T11:28:51+02:00</time>
      </trkpt>
      <trkpt lat="45.45822" lon="0.83801">
        <ele>304</ele>
        <time>2021-09-22T11:29:07+02:00</time>
      </trkpt>
      <trkpt lat="45.458" lon="0.83797">
        <ele>297</ele>
        <time>2021-09-22T11:29:28+02:00</time>
      </trkpt>
      <trkpt lat="45.45777" lon="0.83792">
        <ele>290</ele>
        <time>2021-09-22T11:29:47+02:00</time>
      </trkpt>
      <trkpt lat="45.45754" lon="0.83787">
        <ele>287</ele>
        <time>2021-09-22T11:30:08+02:00</time>
      </trkpt>
      <trkpt lat="45.45731" lon="0.83783">
        <ele>279</ele>
        <time>2021-09-22T11:30:30+02:00</time>
      </trkpt>
      <trkpt lat="45.45709" lon="0.83774">
        <ele>281</ele>
        <time>2021-09-22T11:30:55+02:00</time>
      </trkpt>
      <trkpt lat="45.45686" lon="0.83766">
        <ele>281</ele>
        <time>2021-09-22T11:31:18+02:00</time>
      </trkpt>
      <trkpt lat="45.45663" lon="0.83762">
        <ele>278</ele>
        <time>2021-09-22T11:31:41+02:00</time>
      </trkpt>
      <trkpt lat="45.45641" lon="0.83753">
        <ele>283</ele>
        <time>2021-09-22T11:32:09+02:00</time>
      </trkpt>
      <trkpt lat="45.45619" lon="0.8375">
        <ele>287</ele>
        <time>2021-09-22T11:32:30+02:00</time>
      </trkpt>
      <trkpt lat="45.45597" lon="0.83744">
        <ele>286</ele>
        <time>2021-09-22T11:32:56+02:00</time>
      </trkpt>
      <trkpt lat="45.45574" lon="0.83737">
        <ele>285</ele>
        <time>2021-09-22T11:33:14+02:00</time>
      </trkpt>
      <trkpt lat="45.45552" lon="0.83728">
        <ele>276</ele>
        <time>2021-09-22T11:33:34+02:00</time>
      </trkpt>
      <trkpt lat="45.4553" lon="0.83718">
        <ele>275</ele>
        <time>2021-09-22T11:33:56+02:00</time>
      </trkpt>
      <trkpt lat="45.45507" lon="0.83711">
        <ele>270</ele>
        <time>2021-09-22T11:34:15+02:00</time>
      </trkpt>
      <trkpt lat="45.45484" lon="0.83703">
        <ele>267</ele>
        <time>2021-09-22T11:34:34+02:00</time>
      </trkpt>
      <trkpt lat="45.45461" lon="0.83694">
        <ele>266</ele>
        <time>2021-09-22T11:34:53+02:00</time>
      </trkpt>
      <trkpt lat="45.4544" lon="0.83682">
        <ele>265</ele>
        <time>2021-09-22T11:35:14+02:00</time>
      </trkpt>
      <trkpt lat="45.45418" lon="0.83672">
        <ele>264</ele>
        <time>2021-09-22T11:36:41+02:00</time>
      </trkpt>
      <trkpt lat="45.45408" lon="0.83702">
        <ele>267</ele>
        <time>2021-09-22T11:37:02+02:00</time>
      </trkpt>
      <trkpt lat="45.45411" lon="0.83735">
        <ele>269</ele>
        <time>2021-09-22T11:37:23+02:00</time>
      </trkpt>
      <trkpt lat="45.45422" lon="0.83763">
        <ele>273</ele>
        <time>2021-09-22T11:37:46+02:00</time>
      </trkpt>
      <trkpt lat="45.45425" lon="0.83796">
        <ele>274</ele>
        <time>2021-09-22T11:38:09+02:00</time>
      </trkpt>
      <trkpt lat="45.45424" lon="0.83828">
        <ele>273</ele>
        <time>2021-09-22T11:38:28+02:00</time>
      </trkpt>
      <trkpt lat="45.45417" lon="0.83859">
        <ele>270</ele>
        <time>2021-09-22T11:38:47+02:00</time>
      </trkpt>
      <trkpt lat="45.4541" lon="0.8389">
        <ele>270</ele>
        <time>2021-09-22T11:39:07+02:00</time>
      </trkpt>
      <trkpt lat="45.45407" lon="0.83923">
        <ele>277</ele>
        <time>2021-09-22T11:39:31+02:00</time>
      </trkpt>
      <trkpt lat="45.45401" lon="0.83954">
        <ele>293</ele>
        <time>2021-09-22T11:40:00+02:00</time>
      </trkpt>
      <trkpt lat="45.45398" lon="0.83986">
        <ele>302</ele>
        <time>2021-09-22T11:40:24+02:00</time>
      </trkpt>
      <trkpt lat="45.45393" lon="0.84021">
        <ele>299</ele>
        <time>2021-09-22T11:41:01+02:00</time>
      </trkpt>
      <trkpt lat="45.45399" lon="0.84053">
        <ele>287</ele>
        <time>2021-09-22T11:41:35+02:00</time>
      </trkpt>
      <trkpt lat="45.45401" lon="0.84085">
        <ele>279</ele>
        <time>2021-09-22T11:42:07+02:00</time>
      </trkpt>
      <trkpt lat="45.45407" lon="0.84117">
        <ele>281</ele>
        <time>2021-09-22T11:42:28+02:00</time>
      </trkpt>
      <trkpt lat="45.45412" lon="0.84149">
        <ele>283</ele>
        <time>2021-09-22T11:42:56+02:00</time>
      </trkpt>
      <trkpt lat="45.45405" lon="0.8418">
        <ele>283</ele>
        <time>2021-09-22T11:43:18+02:00</time>
      </trkpt>
      <trkpt lat="45.45383" lon="0.84191">
        <ele>285</ele>
        <time>2021-09-22T11:43:43+02:00</time>
      </trkpt>
      <trkpt lat="45.45369" lon="0.84216">
        <ele>286</ele>
        <time>2021-09-22T11:44:21+02:00</time>
      </trkpt>
      <trkpt lat="45.45371" lon="0.84248">
        <ele>292</ele>
        <time>2021-09-22T11:45:03+02:00</time>
      </trkpt>
      <trkpt lat="45.45382" lon="0.84277">
        <ele>289</ele>
        <time>2021-09-22T11:45:23+02:00</time>
      </trkpt>
      <trkpt lat="45.45395" lon="0.84305">
        <ele>288</ele>
        <time>2021-09-22T11:46:05+02:00</time>
      </trkpt>
      <trkpt lat="45.45402" lon="0.84337">
        <ele>286</ele>
        <time>2021-09-22T11:46:25+02:00</time>
      </trkpt>
      <trkpt lat="45.45408" lon="0.84369">
        <ele>281</ele>
        <time>2021-09-22T11:46:44+02:00</time>
      </trkpt>
      <trkpt lat="45.45416" lon="0.84401">
        <ele>277</ele>
        <time>2021-09-22T11:47:06+02:00</time>
      </trkpt>
      <trkpt lat="45.45425" lon="0.84431">
        <ele>277</ele>
        <time>2021-09-22T11:47:28+02:00</time>
      </trkpt>
      <trkpt lat="45.45434" lon="0.8446">
        <ele>271</ele>
        <time>2021-09-22T11:49:19+02:00</time>
      </trkpt>
      <trkpt lat="45.45439" lon="0.84492">
        <ele>271</ele>
        <time>2021-09-22T11:49:57+02:00</time>
      </trkpt>
      <trkpt lat="45.45451" lon="0.84521">
        <ele>272</ele>
        <time>2021-09-22T11:50:30+02:00</time>
      </trkpt>
      <trkpt lat="45.45458" lon="0.84553">
        <ele>275</ele>
        <time>2021-09-22T11:50:56+02:00</time>
      </trkpt>
      <trkpt lat="45.45461" lon="0.84586">
        <ele>276</ele>
        <time>2021-09-22T11:51:13+02:00</time>
      </trkpt>
      <trkpt lat="45.45464" lon="0.84618">
        <ele>274</ele>
        <time>2021-09-22T11:51:42+02:00</time>
      </trkpt>
      <trkpt lat="45.45467" lon="0.8465">
        <ele>269</ele>
        <time>2021-09-22T11:53:11+02:00</time>
      </trkpt>
      <trkpt lat="45.45467" lon="0.84682">
        <ele>271</ele>
        <time>2021-09-22T11:53:49+02:00</time>
      </trkpt>
      <trkpt lat="45.4548" lon="0.84713">
        <ele>272</ele>
        <time>2021-09-22T11:54:14+02:00</time>
      </trkpt>
      <trkpt lat="45.45483" lon="0.84746">
        <ele>268</ele>
        <time>2021-09-22T11:54:41+02:00</time>
      </trkpt>
      <trkpt lat="45.45487" lon="0.84778">
        <ele>265</ele>
        <time>2021-09-22T11:55:00+02:00</time>
      </trkpt>
      <trkpt lat="45.45483" lon="0.84811">
        <ele>263</ele>
        <time>2021-09-22T11:55:29+02:00</time>
      </trkpt>
      <trkpt lat="45.45492" lon="0.84841">
        <ele>260</ele>
        <time>2021-09-22T11:56:05+02:00</time>
      </trkpt>
      <trkpt lat="45.45515" lon="0.84851">
        <ele>261</ele>
        <time>2021-09-22T11:56:31+02:00</time>
      </trkpt>
      <trkpt lat="45.45529" lon="0.84876">
        <ele>256</ele>
        <time>2021-09-22T11:57:14+02:00</time>
      </trkpt>
      <trkpt lat="45.45527" lon="0.84908">
        <ele>243</ele>
        <time>2021-09-22T11:57:47+02:00</time>
      </trkpt>
      <trkpt lat="45.45539" lon="0.84937">
        <ele>246</ele>
        <time>2021-09-22T11:58:19+02:00</time>
      </trkpt>
      <trkpt lat="45.45538" lon="0.84969">
        <ele>244</ele>
        <time>2021-09-22T11:58:42+02:00</time>
      </trkpt>
      <trkpt lat="45.4554" lon="0.85001">
        <ele>239</ele>
        <time>2021-09-22T11:59:06+02:00</time>
      </trkpt>
      <trkpt lat="45.45546" lon="0.85034">
        <ele>234</ele>
        <time>2021-09-22T11:59:29+02:00</time>
      </trkpt>
      <trkpt lat="45.45529" lon="0.85057">
        <ele>238</ele>
        <time>2021-09-22T12:00:06+02:00</time>
      </trkpt>
      <trkpt lat="45.45506" lon="0.85056">
        <ele>243</ele>
        <time>2021-09-22T12:00:34+02:00</time>
      </trkpt>
      <trkpt lat="45.45484" lon="0.85055">
        <ele>253</ele>
        <time>2021-09-22T12:01:13+02:00</time>
      </trkpt>
      <trkpt lat="45.45461" lon="0.8505">
        <ele>256</ele>
        <time>2021-09-22T12:01:43+02:00</time>
      </trkpt>
      <trkpt lat="45.45439" lon="0.85043">
        <ele>268</ele>
        <time>2021-09-22T12:02:20+02:00</time>
      </trkpt>
      <trkpt lat="45.45417" lon="0.85036">
        <ele>269</ele>
        <time>2021-09-22T12:02:46+02:00</time>
      </trkpt>
      <trkpt lat="45.45405" lon="0.85008">
        <ele>270</ele>
        <time>2021-09-22T12:03:14+02:00</time>
      </trkpt>
      <trkpt lat="45.45386" lon="0.84991">
        <ele>270</ele>
        <time>2021-09-22T12:03:37+02:00</time>
      </trkpt>
      <trkpt lat="45.45366" lon="0.84977">
        <ele>272</ele>
        <time>2021-09-22T12:04:04+02:00</time>
      </trkpt>
      <trkpt lat="45.45343" lon="0.8497">
        <ele>277</ele>
        <time>2021-09-22T12:04:33+02:00</time>
      </trkpt>
      <trkpt lat="45.45321" lon="0.84959">
        <ele>277</ele>
        <time>2021-09-22T12:05:02+02:00</time>
      </trkpt>
      <trkpt lat="45.45299" lon="0.84949">
        <ele>278</ele>
        <time>2021-09-22T12:05:27+02:00</time>
      </trkpt>
      <trkpt lat="45.45277" lon="0.84943">
        <ele>282</ele>
        <time>2021-09-22T12:06:19+02:00</time>
      </trkpt>
      <trkpt lat="45.45255" lon="0.84935">
        <ele>283</ele>
        <time>2021-09-22T12:06:50+02:00</time>
      </trkpt>
      <trkpt lat="45.45233" lon="0.84925">
        <ele>284</ele>
        <time>2021-09-22T12:07:17+02:00</time>
      </trkpt>
      <trkpt lat="45.45211" lon="0.84917">
        <ele>283</ele>
        <time>2021-09-22T12:09:36+02:00</time>
      </trkpt>
      <trkpt lat="45.4519" lon="0.84902">
        <ele>293</ele>
        <time>2021-09-22T12:10:21+02:00</time>
      </trkpt>
      <trkpt lat="45.45172" lon="0.84921">
        <ele>295</ele>
        <time>2021-09-22T12:10:45+02:00</time>
      </trkpt>
      <trkpt lat="45.45151" lon="0.84908">
        <ele>293</ele>
        <time>2021-09-22T12:11:11+02:00</time>
      </trkpt>
      <trkpt lat="45.45129" lon="0.84904">
        <ele>290</ele>
        <time>2021-09-22T12:14:16+02:00</time>
      </trkpt>
      <trkpt lat="45.45106" lon="0.84898">
        <ele>286</ele>
        <time>2021-09-22T12:14:38+02:00</time>
      </trkpt>
      <trkpt lat="45.45084" lon="0.84886">
        <ele>283</ele>
        <time>2021-09-22T12:15:00+02:00</time>
      </trkpt>
      <trkpt lat="45.45062" lon="0.84879">
        <ele>278</ele>
        <time>2021-09-22T12:15:16+02:00</time>
      </trkpt>
      <trkpt lat="45.45039" lon="0.84871">
        <ele>275</ele>
        <time>2021-09-22T12:15:36+02:00</time>
      </trkpt>
      <trkpt lat="45.45017" lon="0.84866">
        <ele>272</ele>
        <time>2021-09-22T12:15:53+02:00</time>
      </trkpt>
      <trkpt lat="45.44994" lon="0.84864">
        <ele>276</ele>
        <time>2021-09-22T12:16:18+02:00</time>
      </trkpt>
      <trkpt lat="45.44971" lon="0.84861">
        <ele>279</ele>
        <time>2021-09-22T12:16:41+02:00</time>
      </trkpt>
      <trkpt lat="45.44949" lon="0.84852">
        <ele>282</ele>
        <time>2021-09-22T12:17:02+02:00</time>
      </trkpt>
      <trkpt lat="45.44927" lon="0.84844">
        <ele>282</ele>
        <time>2021-09-22T12:17:21+02:00</time>
      </trkpt>
      <trkpt lat="45.44905" lon="0.84845">
        <ele>280</ele>
        <time>2021-09-22T12:17:46+02:00</time>
      </trkpt>
      <trkpt lat="45.44903" lon="0.84878">
        <ele>278</ele>
        <time>2021-09-22T12:18:16+02:00</time>
      </trkpt>
      <trkpt lat="45.44909" lon="0.84911">
        <ele>281</ele>
        <time>2021-09-22T12:18:39+02:00</time>
      </trkpt>
      <trkpt lat="45.44909" lon="0.84943">
        <ele>280</ele>
        <time>2021-09-22T12:18:57+02:00</time>
      </trkpt>
      <trkpt lat="45.44903" lon="0.84975">
        <ele>274</ele>
        <time>2021-09-22T12:19:22+02:00</time>
      </trkpt>
      <trkpt lat="45.44897" lon="0.85006">
        <ele>270</ele>
        <time>2021-09-22T12:19:46+02:00</time>
      </trkpt>
      <trkpt lat="45.44892" lon="0.85037">
        <ele>269</ele>
        <time>2021-09-22T12:20:08+02:00</time>
      </trkpt>
      <trkpt lat="45.44874" lon="0.85058">
        <ele>266</ele>
        <time>2021-09-22T12:20:33+02:00</time>
      </trkpt>
      <trkpt lat="45.44852" lon="0.8507">
        <ele>269</ele>
        <time>2021-09-22T12:21:03+02:00</time>
      </trkpt>
      <trkpt lat="45.4483" lon="0.85076">
        <ele>269</ele>
        <time>2021-09-22T12:21:32+02:00</time>
      </trkpt>
      <trkpt lat="45.44807" lon="0.85081">
        <ele>275</ele>
        <time>2021-09-22T12:21:55+02:00</time>
      </trkpt>
      <trkpt lat="45.44785" lon="0.85089">
        <ele>281</ele>
        <time>2021-09-22T12:22:32+02:00</time>
      </trkpt>
      <trkpt lat="45.44762" lon="0.85086">
        <ele>284</ele>
        <time>2021-09-22T12:22:58+02:00</time>
      </trkpt>
      <trkpt lat="45.44739" lon="0.85084">
        <ele>285</ele>
        <time>2021-09-22T12:23:21+02:00</time>
      </trkpt>
      <trkpt lat="45.44718" lon="0.85072">
        <ele>284</ele>
        <time>2021-09-22T12:23:43+02:00</time>
      </trkpt>
      <trkpt lat="45.44697" lon="0.85058">
        <ele>280</ele>
        <time>2021-09-22T12:24:05+02:00</time>
      </trkpt>
      <trkpt lat="45.44679" lon="0.85039">
        <ele>276</ele>
        <time>2021-09-22T12:24:29+02:00</time>
      </trkpt>
      <trkpt lat="45.44662" lon="0.85017">
        <ele>275</ele>
        <time>2021-09-22T12:24:58+02:00</time>
      </trkpt>
      <trkpt lat="45.44651" lon="0.84989">
        <ele>274</ele>
        <time>2021-09-22T12:25:20+02:00</time>
      </trkpt>
      <trkpt lat="45.4464" lon="0.84961">
        <ele>269</ele>
        <time>2021-09-22T12:25:38+02:00</time>
      </trkpt>
      <trkpt lat="45.44635" lon="0.84929">
        <ele>269</ele>
        <time>2021-09-22T12:25:59+02:00</time>
      </trkpt>
      <trkpt lat="45.4463" lon="0.84897">
        <ele>268</ele>
        <time>2021-09-22T12:26:18+02:00</time>
      </trkpt>
      <trkpt lat="45.44624" lon="0.84867">
        <ele>271</ele>
        <time>2021-09-22T12:26:39+02:00</time>
      </trkpt>
      <trkpt lat="45.44614" lon="0.84837">
        <ele>272</ele>
        <time>2021-09-22T12:27:02+02:00</time>
      </trkpt>
      <trkpt lat="45.44605" lon="0.84807">
        <ele>277</ele>
        <time>2021-09-22T12:27:27+02:00</time>
      </trkpt>
      <trkpt lat="45.44593" lon="0.84779">
        <ele>280</ele>
        <time>2021-09-22T12:27:49+02:00</time>
      </trkpt>
      <trkpt lat="45.44579" lon="0.84753">
        <ele>274</ele>
        <time>2021-09-22T12:28:07+02:00</time>
      </trkpt>
      <trkpt lat="45.44563" lon="0.84729">
        <ele>280</ele>
        <time>2021-09-22T12:28:33+02:00</time>
      </trkpt>
      <trkpt lat="45.44545" lon="0.84711">
        <ele>284</ele>
        <time>2021-09-22T12:28:57+02:00</time>
      </trkpt>
      <trkpt lat="45.44526" lon="0.84692">
        <ele>280</ele>
        <time>2021-09-22T12:29:17+02:00</time>
      </trkpt>
      <trkpt lat="45.4451" lon="0.84668">
        <ele>278</ele>
        <time>2021-09-22T12:29:38+02:00</time>
      </trkpt>
      <trkpt lat="45.44494" lon="0.84643">
        <ele>278</ele>
        <time>2021-09-22T12:29:59+02:00</time>
      </trkpt>
      <trkpt lat="45.4448" lon="0.84617">
        <ele>277</ele>
        <time>2021-09-22T12:30:19+02:00</time>
      </trkpt>
      <trkpt lat="45.44463" lon="0.84594">
        <ele>276</ele>
        <time>2021-09-22T12:30:41+02:00</time>
      </trkpt>
      <trkpt lat="45.44447" lon="0.8457">
        <ele>273</ele>
        <time>2021-09-22T12:31:02+02:00</time>
      </trkpt>
      <trkpt lat="45.4443" lon="0.84548">
        <ele>273</ele>
        <time>2021-09-22T12:31:23+02:00</time>
      </trkpt>
      <trkpt lat="45.44413" lon="0.84524">
        <ele>273</ele>
        <time>2021-09-22T12:31:45+02:00</time>
      </trkpt>
      <trkpt lat="45.44395" lon="0.84505">
        <ele>275</ele>
        <time>2021-09-22T12:32:10+02:00</time>
      </trkpt>
      <trkpt lat="45.44381" lon="0.84478">
        <ele>279</ele>
        <time>2021-09-22T12:32:36+02:00</time>
      </trkpt>
      <trkpt lat="45.44359" lon="0.84466">
        <ele>283</ele>
        <time>2021-09-22T12:33:00+02:00</time>
      </trkpt>
      <trkpt lat="45.44338" lon="0.84456">
        <ele>286</ele>
        <time>2021-09-22T12:33:20+02:00</time>
      </trkpt>
      <trkpt lat="45.44315" lon="0.84452">
        <ele>276</ele>
        <time>2021-09-22T12:33:40+02:00</time>
      </trkpt>
      <trkpt lat="45.44292" lon="0.84452">
        <ele>272</ele>
        <time>2021-09-22T12:34:06+02:00</time>
      </trkpt>
      <trkpt lat="45.44271" lon="0.84466">
        <ele>264</ele>
        <time>2021-09-22T12:34:26+02:00</time>
      </trkpt>
      <trkpt lat="45.44273" lon="0.84501">
        <ele>263</ele>
        <time>2021-09-22T12:34:58+02:00</time>
      </trkpt>
    </trkseg>
  </trk>
</gpx>